createdAt,value
2019-05-21T03:37:08.473Z,999.39
2019-05-21T03:38:08.461Z,999.40
2019-05-21T03:39:08.441Z,999.41
2019-05-21T03:40:08.450Z,999.40
2019-05-21T03:41:08.418Z,999.38
2019-05-21T03:42:08.408Z,999.45
2019-05-21T03:43:08.498Z,999.46
2019-05-21T03:45:08.536Z,999.45
2019-05-21T03:46:08.365Z,999.50
2019-05-21T03:47:08.347Z,999.42
2019-05-21T03:48:08.340Z,999.46
2019-05-21T03:49:08.333Z,999.50
2019-05-21T03:50:08.328Z,999.51
2019-05-21T03:51:08.301Z,999.48
2019-05-21T03:52:08.294Z,999.49
2019-05-21T03:53:08.280Z,999.52
2019-05-21T03:54:08.267Z,999.58
2019-05-21T03:55:08.268Z,999.61
2019-05-21T03:56:08.251Z,999.55
2019-05-21T03:57:08.260Z,999.65
2019-05-21T03:58:08.243Z,999.57
2019-05-21T03:59:08.214Z,999.57
2019-05-21T04:00:08.209Z,999.53
2019-05-21T04:01:08.189Z,999.60
2019-05-21T04:02:08.192Z,999.57
2019-05-21T04:03:08.177Z,999.64
2019-05-21T04:04:08.162Z,999.60
2019-05-21T04:05:08.141Z,999.59
2019-05-21T04:06:08.131Z,999.57
2019-05-21T04:07:08.114Z,999.56
2019-05-21T04:08:08.115Z,999.59
2019-05-21T04:09:08.113Z,999.58
2019-05-21T04:10:08.089Z,999.56
2019-05-21T04:11:08.109Z,999.61
2019-05-21T04:12:08.072Z,999.64
2019-05-21T04:13:08.675Z,999.66
2019-05-21T04:14:08.050Z,999.71
2019-05-21T04:15:08.049Z,999.68
2019-05-21T04:16:08.018Z,999.67
2019-05-21T04:17:08.019Z,999.71
2019-05-21T04:18:08.010Z,999.73
2019-05-21T04:19:07.998Z,999.72
2019-05-21T04:20:07.989Z,999.74
2019-05-21T04:21:07.971Z,999.79
2019-05-21T04:22:07.954Z,999.82
2019-05-21T04:23:07.940Z,999.77
2019-05-21T04:24:09.355Z,999.76
2019-05-21T04:25:07.928Z,999.67
2019-05-21T04:26:07.928Z,999.71
2019-05-21T04:27:07.909Z,999.68
2019-05-21T04:28:07.886Z,999.63
2019-05-21T04:29:07.881Z,999.59
2019-05-21T04:30:11.195Z,999.68
2019-05-21T04:31:07.848Z,999.66
2019-05-21T04:32:07.843Z,999.68
2019-05-21T04:33:07.821Z,999.63
2019-05-21T04:34:07.876Z,999.68
2019-05-21T04:35:07.803Z,999.59
2019-05-21T04:36:07.801Z,999.65
2019-05-21T04:37:11.254Z,999.53
2019-05-21T04:38:07.798Z,999.62
2019-05-21T04:39:07.783Z,999.74
2019-05-21T04:40:07.764Z,999.75
2019-05-21T04:41:07.781Z,999.69
2019-05-21T04:42:07.746Z,999.60
2019-05-21T04:43:07.711Z,999.58
2019-05-21T04:44:07.743Z,999.54
2019-05-21T04:45:08.124Z,999.64
2019-05-21T04:46:07.682Z,999.68
2019-05-21T04:47:07.673Z,999.60
2019-05-21T04:48:07.675Z,999.64
2019-05-21T04:49:07.641Z,999.62
2019-05-21T04:50:07.638Z,999.57
2019-05-21T04:51:07.617Z,999.60
2019-05-21T04:52:07.621Z,999.56
2019-05-21T04:53:07.601Z,999.58
2019-05-21T04:54:07.585Z,999.55
2019-05-21T04:55:07.582Z,999.55
2019-05-21T04:56:07.576Z,999.57
2019-05-21T04:57:07.574Z,999.60
2019-05-21T04:58:07.541Z,999.56
2019-05-21T04:59:07.528Z,999.54
2019-05-21T05:00:07.523Z,999.52
2019-05-21T05:01:07.511Z,999.52
2019-05-21T05:02:07.512Z,999.50
2019-05-21T05:03:07.493Z,999.47
2019-05-21T05:04:07.476Z,999.44
2019-05-21T05:05:07.457Z,999.44
2019-05-21T05:06:07.468Z,999.46
2019-05-21T05:07:07.444Z,999.44
2019-05-21T05:08:07.431Z,999.48
2019-05-21T05:09:07.414Z,999.45
2019-05-21T05:10:07.406Z,999.51
2019-05-21T05:11:07.415Z,999.52
2019-05-21T05:12:07.381Z,999.57
2019-05-21T05:13:07.375Z,999.52
2019-05-21T05:14:07.385Z,999.50
2019-05-21T05:15:07.381Z,999.52
2019-05-21T05:16:07.335Z,999.59
2019-05-21T05:17:07.334Z,999.55
2019-05-21T05:18:07.324Z,999.58
2019-05-21T05:19:07.309Z,999.56
2019-05-21T05:20:07.321Z,999.62
2019-05-21T05:21:07.287Z,999.66
2019-05-21T05:22:07.287Z,999.75
2019-05-21T05:23:07.259Z,999.76
2019-05-21T05:24:07.239Z,999.78
2019-05-21T05:25:07.238Z,999.71
2019-05-21T05:26:07.249Z,999.76
2019-05-21T05:27:07.240Z,999.74
2019-05-21T05:28:07.211Z,999.74
2019-05-21T05:29:07.398Z,999.77
2019-05-21T05:30:07.187Z,999.78
2019-05-21T05:31:07.167Z,999.82
2019-05-21T05:32:07.151Z,999.85
2019-05-21T05:33:07.138Z,999.86
2019-05-21T05:34:07.134Z,999.96
2019-05-21T05:35:07.134Z,999.94
2019-05-21T05:36:07.115Z,999.96
2019-05-21T05:37:07.097Z,999.96
2019-05-21T05:38:07.090Z,999.96
2019-05-21T05:39:07.079Z,1000.00
2019-05-21T05:40:07.085Z,1000.02
2019-05-21T05:41:07.073Z,1000.07
2019-05-21T05:42:07.047Z,1000.07
2019-05-21T05:43:07.041Z,1000.05
2019-05-21T05:44:07.027Z,1000.05
2019-05-21T05:45:07.006Z,1000.14
2019-05-21T05:46:06.994Z,1000.10
2019-05-21T05:47:06.994Z,1000.13
2019-05-21T05:48:06.990Z,1000.09
2019-05-21T05:49:06.964Z,1000.11
2019-05-21T05:50:06.982Z,1000.15
2019-05-21T05:51:06.947Z,1000.19
2019-05-21T05:52:06.921Z,1000.12
2019-05-21T05:53:06.939Z,1000.15
2019-05-21T05:54:07.802Z,1000.19
2019-05-21T05:55:06.893Z,1000.18
2019-05-21T05:56:06.881Z,1000.15
2019-05-21T05:57:06.870Z,1000.22
2019-05-21T05:58:06.874Z,1000.17
2019-05-21T05:59:06.849Z,1000.18
2019-05-21T06:00:06.842Z,1000.19
2019-05-21T06:01:06.833Z,1000.21
2019-05-21T06:02:06.822Z,1000.17
2019-05-21T06:03:06.828Z,1000.17
2019-05-21T06:04:06.833Z,1000.21
2019-05-21T06:05:06.875Z,1000.15
2019-05-21T06:06:06.834Z,1000.29
2019-05-21T06:07:06.860Z,1000.20
2019-05-21T06:08:06.792Z,1000.21
2019-05-21T06:09:06.825Z,1000.26
2019-05-21T06:10:06.770Z,1000.18
2019-05-21T06:11:07.077Z,1000.22
2019-05-21T06:12:06.797Z,1000.23
2019-05-21T06:13:06.899Z,1000.23
2019-05-21T06:14:06.814Z,1000.30
2019-05-21T06:15:06.820Z,1000.25
2019-05-21T06:16:06.807Z,1000.29
2019-05-21T06:17:06.765Z,1000.30
2019-05-21T06:18:06.788Z,1000.27
2019-05-21T06:19:09.714Z,1000.33
2019-05-21T06:20:06.694Z,1000.36
2019-05-21T06:21:06.702Z,1000.34
2019-05-21T06:22:06.689Z,1000.40
2019-05-21T06:23:06.665Z,1000.39
2019-05-21T06:24:06.703Z,1000.42
2019-05-21T06:25:07.039Z,1000.40
2019-05-21T06:26:06.586Z,1000.44
2019-05-21T06:27:06.657Z,1000.41
2019-05-21T06:28:06.525Z,1000.43
2019-05-21T06:29:06.634Z,1000.45
2019-05-21T06:30:06.532Z,1000.47
2019-05-21T06:31:06.497Z,1000.49
2019-05-21T06:32:06.490Z,1000.50
2019-05-21T06:33:06.459Z,1000.55
2019-05-21T06:34:06.461Z,1000.52
2019-05-21T06:35:06.489Z,1000.55
2019-05-21T06:36:06.425Z,1000.57
2019-05-21T06:37:06.501Z,1000.54
2019-05-21T06:38:17.143Z,1000.57
2019-05-21T06:39:28.635Z,1000.56
2019-05-21T06:40:28.607Z,1000.61
2019-05-21T06:41:28.635Z,1000.54
2019-05-21T06:42:28.599Z,1000.58
2019-05-21T06:43:28.702Z,1000.60
2019-05-21T06:44:28.575Z,1000.61
2019-05-21T06:45:29.616Z,1000.59
2019-05-21T06:46:28.628Z,1000.65
2019-05-21T06:47:28.560Z,1000.63
2019-05-21T06:48:28.633Z,1000.66
2019-05-21T06:49:28.642Z,1000.67
2019-05-21T06:50:28.488Z,1000.67
2019-05-21T06:51:28.492Z,1000.68
2019-05-21T06:52:28.468Z,1000.67
2019-05-21T06:53:28.478Z,1000.70
2019-05-21T06:54:28.454Z,1000.76
2019-05-21T06:55:28.430Z,1000.77
2019-05-21T06:56:28.429Z,1000.74
2019-05-21T06:57:28.435Z,1000.77
2019-05-21T06:58:28.409Z,1000.73
2019-05-21T06:59:28.390Z,1000.74
2019-05-21T07:00:28.379Z,1000.74
2019-05-21T07:01:29.665Z,1000.72
2019-05-21T07:02:28.358Z,1000.72
2019-05-21T07:03:28.347Z,1000.83
2019-05-21T07:04:28.339Z,1000.81
2019-05-21T07:05:28.350Z,1000.82
2019-05-21T07:06:28.321Z,1000.88
2019-05-21T07:07:28.321Z,1000.88
2019-05-21T07:08:34.543Z,1000.87
2019-05-21T07:09:50.352Z,1000.88
2019-05-21T07:10:50.353Z,1000.89
2019-05-21T07:11:50.328Z,1000.92
2019-05-21T07:12:50.318Z,1000.85
2019-05-21T07:13:50.319Z,1000.91
2019-05-21T07:14:50.324Z,1000.91
2019-05-21T07:15:50.311Z,1000.92
2019-05-21T07:16:50.301Z,1000.92
2019-05-21T07:17:50.272Z,1000.92
2019-05-21T07:18:50.257Z,1000.88
2019-05-21T07:19:50.254Z,1000.92
2019-05-21T07:20:50.241Z,1000.92
2019-05-21T07:21:50.280Z,1000.95
2019-05-21T07:22:50.378Z,1000.93
2019-05-21T07:23:50.216Z,1000.89
2019-05-21T07:24:50.212Z,1000.94
2019-05-21T07:25:50.222Z,1000.92
2019-05-21T07:26:50.231Z,1000.97
2019-05-21T07:27:50.207Z,1000.98
2019-05-21T07:28:50.239Z,1000.93
2019-05-21T07:29:50.150Z,1000.92
2019-05-21T07:30:50.165Z,1000.93
2019-05-21T07:31:50.109Z,1000.93
2019-05-21T07:32:50.121Z,1000.94
2019-05-21T07:33:50.085Z,1000.98
2019-05-21T07:34:50.072Z,1001.04
2019-05-21T07:35:50.095Z,1001.02
2019-05-21T07:36:50.060Z,1001.01
2019-05-21T07:37:50.049Z,1001.05
2019-05-21T07:38:53.764Z,1001.01
2019-05-21T07:39:50.031Z,1001.03
2019-05-21T07:40:50.005Z,1001.08
2019-05-21T07:41:50.059Z,1001.05
2019-05-21T07:42:49.987Z,1001.09
2019-05-21T07:43:49.991Z,1001.12
2019-05-21T07:44:49.954Z,1001.09
2019-05-21T07:45:49.945Z,1001.12
2019-05-21T07:46:49.937Z,1001.21
2019-05-21T07:47:49.941Z,1001.18
2019-05-21T07:48:49.922Z,1001.22
2019-05-21T07:49:50.111Z,1001.26
2019-05-21T07:50:49.905Z,1001.28
2019-05-21T07:51:49.934Z,1001.28
2019-05-21T07:52:49.892Z,1001.33
2019-05-21T07:53:49.870Z,1001.33
2019-05-21T07:54:49.868Z,1001.36
2019-05-21T07:55:49.839Z,1001.27
2019-05-21T07:56:49.855Z,1001.37
2019-05-21T07:57:49.861Z,1001.38
2019-05-21T07:58:49.806Z,1001.43
2019-05-21T07:59:49.790Z,1001.43
2019-05-21T08:00:49.803Z,1001.43
2019-05-21T08:01:49.787Z,1001.48
2019-05-21T08:02:49.790Z,1001.50
2019-05-21T08:03:49.756Z,1001.49
2019-05-21T08:04:49.817Z,1001.56
2019-05-21T08:05:49.763Z,1001.59
2019-05-21T08:06:49.827Z,1001.60
2019-05-21T08:07:49.790Z,1001.61
2019-05-21T08:09:09.634Z,1001.63
2019-05-21T08:10:11.590Z,1001.61
2019-05-21T08:11:11.812Z,1001.62
2019-05-21T08:12:35.511Z,1001.62
2019-05-21T08:13:33.507Z,1001.64
2019-05-21T08:14:33.545Z,1001.58
2019-05-21T08:15:34.541Z,1001.66
2019-05-21T08:16:33.552Z,1001.56
2019-05-21T08:17:33.578Z,1001.59
2019-05-21T08:18:33.469Z,1001.64
2019-05-21T08:19:33.535Z,1001.63
2019-05-21T08:20:33.501Z,1001.62
2019-05-21T08:21:33.552Z,1001.67
2019-05-21T08:22:33.457Z,1001.60
2019-05-21T08:23:33.433Z,1001.58
2019-05-21T08:24:33.426Z,1001.56
2019-05-21T08:25:33.425Z,1001.59
2019-05-21T08:26:33.382Z,1001.57
2019-05-21T08:27:33.420Z,1001.60
2019-05-21T08:28:33.442Z,1001.63
2019-05-21T08:29:33.341Z,1001.60
2019-05-21T08:30:33.314Z,1001.65
2019-05-21T08:31:33.361Z,1001.68
2019-05-21T08:32:33.326Z,1001.69
2019-05-21T08:33:33.278Z,1001.76
2019-05-21T08:34:33.285Z,1001.78
2019-05-21T08:35:33.278Z,1001.72
2019-05-21T08:36:33.574Z,1001.75
2019-05-21T08:37:33.252Z,1001.75
2019-05-21T08:38:33.238Z,1001.82
2019-05-21T08:39:33.219Z,1001.76
2019-05-21T08:40:33.201Z,1001.79
2019-05-21T08:41:33.217Z,1001.90
2019-05-21T08:42:33.197Z,1001.85
2019-05-21T08:43:34.205Z,1001.89
2019-05-21T08:44:33.186Z,1001.85
2019-05-21T08:45:33.172Z,1001.86
2019-05-21T08:46:33.221Z,1001.92
2019-05-21T08:47:33.136Z,1001.94
2019-05-21T08:48:33.180Z,1001.93
2019-05-21T08:49:33.184Z,1001.99
2019-05-21T08:50:33.144Z,1001.94
2019-05-21T08:51:33.140Z,1001.99
2019-05-21T08:52:33.151Z,1001.96
2019-05-21T08:53:34.120Z,1002.02
2019-05-21T08:54:33.105Z,1002.04
2019-05-21T08:55:33.058Z,1002.02
2019-05-21T08:56:33.014Z,1002.02
2019-05-21T08:57:33.079Z,1002.09
2019-05-21T08:58:33.165Z,1002.07
2019-05-21T08:59:33.059Z,1002.07
2019-05-21T09:00:33.056Z,1002.06
2019-05-21T09:01:32.974Z,1002.17
2019-05-21T09:02:32.974Z,1002.22
2019-05-21T09:03:32.961Z,1002.20
2019-05-21T09:04:45.870Z,1002.25
2019-05-21T09:05:54.635Z,1002.31
2019-05-21T09:06:54.572Z,1002.34
2019-05-21T09:07:54.568Z,1002.38
2019-05-21T09:08:54.586Z,1002.51
2019-05-21T09:09:54.690Z,1002.46
2019-05-21T09:10:54.562Z,1002.49
2019-05-21T09:11:54.588Z,1002.52
2019-05-21T09:12:54.512Z,1002.48
2019-05-21T09:13:54.513Z,1002.58
2019-05-21T09:31:34.561Z,1002.60
2019-05-21T09:32:34.513Z,1002.54
2019-05-21T09:33:34.517Z,1002.58
2019-05-21T09:34:47.936Z,1002.56
2019-05-21T09:35:56.491Z,1002.54
2019-05-21T09:36:56.473Z,1002.53
2019-05-21T09:37:56.483Z,1002.52
2019-05-21T09:38:56.468Z,1002.45
2019-05-21T09:39:56.472Z,1002.49
2019-05-21T09:40:56.472Z,1002.48
2019-05-21T09:41:56.428Z,1002.52
2019-05-21T09:42:56.473Z,1002.55
2019-05-21T09:43:56.428Z,1002.57
2019-05-21T09:44:56.465Z,1002.54
2019-05-21T09:45:56.459Z,1002.60
2019-05-21T09:46:56.397Z,1002.63
2019-05-21T09:47:56.400Z,1002.64
2019-05-21T09:48:57.455Z,1002.62
2019-05-21T09:49:56.373Z,1002.61
2019-05-21T09:50:56.345Z,1002.69
2019-05-21T09:51:56.304Z,1002.71
2019-05-21T09:52:56.393Z,1002.70
2019-05-21T09:53:56.365Z,1002.70
2019-05-21T09:54:56.353Z,1002.71
2019-05-21T09:55:56.442Z,1002.72
2019-05-21T09:56:56.496Z,1002.71
2019-05-21T09:57:56.393Z,1002.73
2019-05-21T09:58:56.738Z,1002.73
2019-05-21T09:59:56.347Z,1002.68
2019-05-21T10:00:56.245Z,1002.70
2019-05-21T10:01:56.289Z,1002.70
2019-05-21T10:02:56.222Z,1002.72
2019-05-21T10:03:56.226Z,1002.69
2019-05-21T10:04:56.179Z,1002.68
2019-05-21T10:05:56.207Z,1002.65
2019-05-21T10:06:56.227Z,1002.69
2019-05-21T10:07:56.198Z,1002.72
2019-05-21T10:08:56.122Z,1002.67
2019-05-21T10:09:56.119Z,1002.71
2019-05-21T10:10:56.114Z,1002.61
2019-05-21T10:11:56.083Z,1002.62
2019-05-21T10:12:56.073Z,1002.66
2019-05-21T10:13:56.072Z,1002.64
2019-05-21T10:14:56.058Z,1002.65
2019-05-21T10:16:00.588Z,1002.63
2019-05-21T10:16:56.047Z,1002.66
2019-05-21T10:17:56.013Z,1002.73
2019-05-21T10:18:56.061Z,1002.69
2019-05-21T10:19:58.852Z,1002.68
2019-05-21T10:20:56.021Z,1002.71
2019-05-21T10:21:57.147Z,1002.70
2019-05-21T10:22:56.007Z,1002.74
2019-05-21T10:23:55.945Z,1002.75
2019-05-21T10:24:55.931Z,1002.75
2019-05-21T10:25:55.926Z,1002.82
2019-05-21T10:26:55.921Z,1002.77
2019-05-21T10:27:55.896Z,1002.72
2019-05-21T10:28:55.918Z,1002.78
2019-05-21T10:29:55.916Z,1002.77
2019-05-21T10:30:55.876Z,1002.85
2019-05-21T10:31:55.871Z,1002.85
2019-05-21T10:32:55.839Z,1002.84
2019-05-21T10:33:55.828Z,1002.88
2019-05-21T10:34:55.830Z,1002.86
2019-05-21T10:35:55.824Z,1002.92
2019-05-21T10:36:55.802Z,1002.86
2019-05-21T10:37:55.783Z,1002.91
2019-05-21T10:38:55.764Z,1002.86
2019-05-21T10:39:55.759Z,1002.86
2019-05-21T10:40:55.757Z,1002.87
2019-05-21T10:41:55.757Z,1002.91
2019-05-21T10:42:55.745Z,1002.86
2019-05-21T10:43:55.709Z,1002.89
2019-05-21T10:44:55.711Z,1002.91
2019-05-21T10:45:55.681Z,1002.89
2019-05-21T10:46:55.676Z,1002.85
2019-05-21T10:47:55.671Z,1002.91
2019-05-21T10:48:56.035Z,1002.89
2019-05-21T10:49:55.653Z,1002.84
2019-05-21T10:50:55.652Z,1002.91
2019-05-21T10:51:55.624Z,1002.88
2019-05-21T10:52:55.624Z,1002.90
2019-05-21T10:53:55.608Z,1002.86
2019-05-21T10:54:55.606Z,1002.90
2019-05-21T10:55:55.579Z,1002.93
2019-05-21T10:56:55.559Z,1002.89
2019-05-21T10:57:55.566Z,1002.89
2019-05-21T10:58:55.541Z,1002.88
2019-05-21T10:59:55.557Z,1002.91
2019-05-21T11:00:55.572Z,1002.89
2019-05-21T11:01:55.508Z,1002.93
2019-05-21T11:02:55.498Z,1002.95
2019-05-21T11:03:55.499Z,1003.00
2019-05-21T11:04:55.504Z,1003.11
2019-05-21T11:06:08.989Z,1003.04
2019-05-21T11:07:17.565Z,1003.06
2019-05-21T11:08:25.524Z,1003.09
2019-05-21T11:09:39.553Z,1003.11
2019-05-21T11:10:39.529Z,1003.15
2019-05-21T11:11:39.497Z,1003.15
2019-05-21T11:12:39.490Z,1003.16
2019-05-21T11:13:39.527Z,1003.15
2019-05-21T11:14:39.469Z,1003.21
2019-05-21T11:15:39.465Z,1003.27
2019-05-21T11:16:39.476Z,1003.20
2019-05-21T11:17:53.366Z,1003.26
2019-05-21T11:19:02.076Z,1003.29
2019-05-21T11:20:02.087Z,1003.29
2019-05-21T11:21:02.063Z,1003.25
2019-05-21T11:22:02.032Z,1003.27
2019-05-21T11:23:02.065Z,1003.26
2019-05-21T11:24:02.130Z,1003.32
2019-05-21T11:25:02.004Z,1003.37
2019-05-21T11:26:01.990Z,1003.30
2019-05-21T11:27:04.710Z,1003.34
2019-05-21T11:28:05.845Z,1003.36
2019-05-21T11:29:02.015Z,1003.36
2019-05-21T11:30:01.968Z,1003.35
2019-05-21T11:31:01.911Z,1003.34
2019-05-21T11:32:01.920Z,1003.40
2019-05-21T11:33:01.885Z,1003.38
2019-05-21T11:34:02.936Z,1003.39
2019-05-21T11:35:04.885Z,1003.42
2019-05-21T11:36:02.059Z,1003.44
2019-05-21T11:37:01.862Z,1003.41
2019-05-21T11:38:01.830Z,1003.43
2019-05-21T11:39:01.833Z,1003.43
2019-05-21T11:40:01.811Z,1003.46
2019-05-21T11:41:01.834Z,1003.47
2019-05-21T11:42:01.810Z,1003.48
2019-05-21T11:43:01.784Z,1003.45
2019-05-21T11:44:01.762Z,1003.45
2019-05-21T11:45:01.824Z,1003.51
2019-05-21T11:46:03.088Z,1003.51
2019-05-21T11:47:01.741Z,1003.50
2019-05-21T11:48:02.728Z,1003.47
2019-05-21T11:49:01.725Z,1003.52
2019-05-21T11:50:01.769Z,1003.54
2019-05-21T11:51:01.689Z,1003.53
2019-05-21T11:52:01.710Z,1003.60
2019-05-21T11:53:01.705Z,1003.58
2019-05-21T11:54:01.664Z,1003.56
2019-05-21T11:55:01.677Z,1003.60
2019-05-21T11:56:01.651Z,1003.57
2019-05-21T11:57:01.624Z,1003.56
2019-05-21T11:58:01.621Z,1003.64
2019-05-21T11:59:01.625Z,1003.54
2019-05-21T12:00:01.602Z,1003.61
2019-05-21T12:01:01.596Z,1003.68
2019-05-21T12:02:01.581Z,1003.64
2019-05-21T12:03:01.569Z,1003.65
2019-05-21T12:04:01.552Z,1003.67
2019-05-21T12:05:01.665Z,1003.71
2019-05-21T12:06:01.519Z,1003.68
2019-05-21T12:07:03.401Z,1003.69
2019-05-21T12:08:01.502Z,1003.73
2019-05-21T12:09:01.498Z,1003.70
2019-05-21T12:10:01.572Z,1003.68
2019-05-21T12:11:02.503Z,1003.69
2019-05-21T12:12:01.451Z,1003.71
2019-05-21T12:13:01.506Z,1003.75
2019-05-21T12:14:01.466Z,1003.74
2019-05-21T12:15:01.431Z,1003.74
2019-05-21T12:16:01.447Z,1003.73
2019-05-21T12:17:01.437Z,1003.79
2019-05-21T12:18:01.418Z,1003.78
2019-05-21T12:19:01.413Z,1003.76
2019-05-21T12:20:01.453Z,1003.82
2019-05-21T12:21:01.386Z,1003.84
2019-05-21T12:22:01.374Z,1003.80
2019-05-21T12:23:01.338Z,1003.91
2019-05-21T12:24:01.417Z,1003.90
2019-05-21T12:25:01.330Z,1003.93
2019-05-21T12:26:01.321Z,1003.93
2019-05-21T12:27:01.349Z,1003.94
2019-05-21T12:28:01.287Z,1003.95
2019-05-21T12:29:01.293Z,1003.97
2019-05-21T12:30:01.273Z,1003.94
2019-05-21T12:31:01.283Z,1003.97
2019-05-21T12:32:01.252Z,1004.01
2019-05-21T12:33:01.241Z,1004.04
2019-05-21T12:34:01.210Z,1004.01
2019-05-21T12:35:01.209Z,1004.03
2019-05-21T12:36:01.199Z,1004.08
2019-05-21T12:37:01.183Z,1004.05
2019-05-21T12:38:01.187Z,1004.04
2019-05-21T12:39:13.889Z,1004.07
2019-05-21T12:40:23.385Z,1004.11
2019-05-21T12:41:23.358Z,1004.08
2019-05-21T12:42:23.375Z,1004.07
2019-05-21T12:43:23.340Z,1004.09
2019-05-21T12:44:23.337Z,1004.18
2019-05-21T12:45:23.326Z,1004.18
2019-05-21T12:46:23.305Z,1004.17
2019-05-21T12:47:23.314Z,1004.18
2019-05-21T12:48:23.278Z,1004.20
2019-05-21T12:49:23.272Z,1004.21
2019-05-21T12:50:23.270Z,1004.20
2019-05-21T12:51:23.244Z,1004.23
2019-05-21T12:52:23.260Z,1004.22
2019-05-21T12:53:23.215Z,1004.24
2019-05-21T12:54:23.419Z,1004.18
2019-05-21T12:55:23.217Z,1004.20
2019-05-21T12:56:23.183Z,1004.22
2019-05-21T12:57:23.180Z,1004.22
2019-05-21T12:58:23.196Z,1004.30
2019-05-21T12:59:23.161Z,1004.32
2019-05-21T13:00:23.140Z,1004.31
2019-05-21T13:01:23.154Z,1004.28
2019-05-21T13:02:23.123Z,1004.29
2019-05-21T13:03:23.118Z,1004.30
2019-05-21T13:04:23.117Z,1004.31
2019-05-21T13:05:23.082Z,1004.38
2019-05-21T13:06:23.113Z,1004.37
2019-05-21T13:07:23.081Z,1004.35
2019-05-21T13:08:23.060Z,1004.35
2019-05-21T13:09:32.306Z,1004.41
2019-05-21T13:10:44.623Z,1004.39
2019-05-21T13:11:44.593Z,1004.41
2019-05-21T13:12:44.597Z,1004.43
2019-05-21T13:13:44.572Z,1004.46
2019-05-21T13:14:44.562Z,1004.47
2019-05-21T13:15:44.567Z,1004.43
2019-05-21T13:16:44.533Z,1004.46
2019-05-21T13:17:44.539Z,1004.47
2019-05-21T13:18:44.534Z,1004.51
2019-05-21T13:19:44.526Z,1004.51
2019-05-21T13:20:44.518Z,1004.51
2019-05-21T13:21:44.728Z,1004.50
2019-05-21T13:22:44.473Z,1004.55
2019-05-21T13:23:44.458Z,1004.50
2019-05-21T13:25:06.781Z,1004.55
2019-05-21T13:26:08.718Z,1004.52
2019-05-21T13:27:06.728Z,1004.56
2019-05-21T13:28:06.690Z,1004.55
2019-05-21T13:29:06.685Z,1004.50
2019-05-21T13:30:06.712Z,1004.54
2019-05-21T13:31:06.651Z,1004.54
2019-05-21T13:32:06.668Z,1004.51
2019-05-21T13:33:06.636Z,1004.52
2019-05-21T13:34:07.617Z,1004.55
2019-05-21T13:35:06.816Z,1004.58
2019-05-21T13:36:06.623Z,1004.56
2019-05-21T13:37:06.592Z,1004.59
2019-05-21T13:38:06.586Z,1004.60
2019-05-21T13:39:07.574Z,1004.63
2019-05-21T13:40:06.548Z,1004.63
2019-05-21T13:41:06.539Z,1004.63
2019-05-21T13:42:06.561Z,1004.60
2019-05-21T13:43:06.509Z,1004.66
2019-05-21T13:44:06.508Z,1004.67
2019-05-21T13:45:06.489Z,1004.66
2019-05-21T13:46:06.483Z,1004.65
2019-05-21T13:47:09.479Z,1004.70
2019-05-21T13:48:06.479Z,1004.73
2019-05-21T13:49:06.438Z,1004.71
2019-05-21T13:50:06.431Z,1004.74
2019-05-21T13:51:06.434Z,1004.70
2019-05-21T13:52:06.414Z,1004.71
2019-05-21T13:53:06.401Z,1004.77
2019-05-21T13:54:07.405Z,1004.73
2019-05-21T13:55:06.414Z,1004.72
2019-05-21T13:56:06.375Z,1004.79
2019-05-21T13:57:06.363Z,1004.78
2019-05-21T13:58:06.340Z,1004.76
2019-05-21T13:59:06.344Z,1004.79
2019-05-21T14:00:06.583Z,1004.77
2019-05-21T14:01:06.309Z,1004.81
2019-05-21T14:02:06.316Z,1004.83
2019-05-21T14:03:06.288Z,1004.80
2019-05-21T14:04:06.273Z,1004.86
2019-05-21T14:05:06.277Z,1004.82
2019-05-21T14:06:06.243Z,1004.87
2019-05-21T14:07:06.238Z,1004.88
2019-05-21T14:08:06.239Z,1004.87
2019-05-21T14:09:06.217Z,1004.84
2019-05-21T14:10:18.374Z,1004.88
2019-05-21T14:11:28.523Z,1004.90
2019-05-21T14:12:28.515Z,1004.91
2019-05-21T14:13:28.501Z,1004.89
2019-05-21T14:14:28.480Z,1004.96
2019-05-21T14:15:28.486Z,1004.91
2019-05-21T14:16:28.467Z,1004.95
2019-05-21T14:17:28.494Z,1004.96
2019-05-21T14:18:28.441Z,1004.96
2019-05-21T14:19:28.433Z,1004.95
2019-05-21T14:20:28.424Z,1004.97
2019-05-21T14:21:28.437Z,1004.97
2019-05-21T14:22:28.423Z,1004.92
2019-05-21T14:23:28.394Z,1005.02
2019-05-21T14:24:28.392Z,1004.96
2019-05-21T14:25:28.387Z,1004.99
2019-05-21T14:26:28.359Z,1005.00
2019-05-21T14:27:43.111Z,1005.03
2019-05-21T14:28:50.544Z,1004.94
2019-05-21T14:29:50.537Z,1004.98
2019-05-21T14:30:50.530Z,1005.03
2019-05-21T14:31:50.513Z,1005.05
2019-05-21T14:32:50.506Z,1005.00
2019-05-21T14:33:50.499Z,1005.05
2019-05-21T14:35:00.855Z,1005.05
2019-05-21T14:36:12.549Z,1005.05
2019-05-21T14:37:12.533Z,1005.04
2019-05-21T14:38:12.549Z,1005.06
2019-05-21T14:39:12.510Z,1005.05
2019-05-21T14:40:28.453Z,1005.04
2019-05-21T14:41:34.567Z,1005.02
2019-05-21T14:42:34.559Z,1005.03
2019-05-21T14:43:34.542Z,1005.06
2019-05-21T14:44:34.536Z,1005.07
2019-05-21T14:45:34.760Z,1005.10
2019-05-21T14:46:34.522Z,1005.10
2019-05-21T14:47:34.508Z,1005.11
2019-05-21T14:48:34.489Z,1005.18
2019-05-21T14:49:34.484Z,1005.12
2019-05-21T14:50:34.459Z,1005.14
2019-05-21T14:51:34.473Z,1005.17
2019-05-21T14:52:34.455Z,1005.14
2019-05-21T14:53:34.446Z,1005.15
2019-05-21T14:54:34.422Z,1005.13
2019-05-21T14:55:34.405Z,1005.20
2019-05-21T14:56:34.403Z,1005.17
2019-05-21T14:57:34.380Z,1005.25
2019-05-21T14:58:34.416Z,1005.21
2019-05-21T14:59:34.358Z,1005.23
2019-05-21T15:15:03.037Z,1005.29
2019-05-21T15:16:02.370Z,1005.28
2019-05-21T15:17:02.438Z,1005.28
2019-05-21T15:18:02.360Z,1005.29
2019-05-21T15:19:02.350Z,1005.29
2019-05-21T15:20:02.345Z,1005.30
2019-05-21T15:21:02.356Z,1005.34
2019-05-21T15:22:02.312Z,1005.33
2019-05-21T15:23:02.308Z,1005.32
2019-05-21T15:24:02.863Z,1005.35
2019-05-21T15:25:02.257Z,1005.32
2019-05-21T15:26:02.288Z,1005.36
2019-05-21T15:27:02.239Z,1005.33
2019-05-21T15:28:02.220Z,1005.35
2019-05-21T15:29:02.215Z,1005.32
2019-05-21T15:30:02.243Z,1005.33
2019-05-21T15:31:02.197Z,1005.38
2019-05-21T15:32:02.192Z,1005.39
2019-05-21T15:33:02.177Z,1005.36
2019-05-21T15:34:02.158Z,1005.44
2019-05-21T15:35:02.310Z,1005.45
2019-05-21T15:36:02.137Z,1005.44
2019-05-21T15:37:02.142Z,1005.45
2019-05-21T15:38:02.110Z,1005.42
2019-05-21T15:39:02.104Z,1005.40
2019-05-21T15:40:02.102Z,1005.39
2019-05-21T15:41:10.561Z,1005.40
2019-05-21T15:42:24.286Z,1005.43
2019-05-21T15:43:24.378Z,1005.43
2019-05-21T15:44:24.266Z,1005.43
2019-05-21T15:45:24.265Z,1005.42
2019-05-21T15:46:24.253Z,1005.45
2019-05-21T15:47:24.225Z,1005.51
2019-05-21T15:48:26.641Z,1005.44
2019-05-21T15:49:35.733Z,1005.46
2019-05-21T15:50:46.525Z,1005.45
2019-05-21T15:51:46.528Z,1005.52
2019-05-21T15:52:46.497Z,1005.48
2019-05-21T15:53:46.487Z,1005.52
2019-05-21T15:54:46.484Z,1005.51
2019-05-21T15:55:46.466Z,1005.53
2019-05-21T15:56:46.458Z,1005.50
2019-05-21T15:57:46.456Z,1005.49
2019-05-21T15:58:46.423Z,1005.52
2019-05-21T15:59:46.430Z,1005.51
2019-05-21T16:00:46.414Z,1005.57
2019-05-21T16:01:46.430Z,1005.55
2019-05-21T16:02:46.389Z,1005.54
2019-05-21T16:03:46.372Z,1005.54
2019-05-21T16:04:46.376Z,1005.51
2019-05-21T16:05:46.344Z,1005.53
2019-05-21T16:06:46.337Z,1005.55
2019-05-21T16:07:46.332Z,1005.57
2019-05-21T16:08:46.415Z,1005.56
2019-05-21T16:09:46.305Z,1005.57
2019-05-21T16:10:46.312Z,1005.59
2019-05-21T16:11:46.277Z,1005.59
2019-05-21T16:12:46.286Z,1005.58
2019-05-21T16:13:46.268Z,1005.61
2019-05-21T16:14:46.250Z,1005.60
2019-05-21T16:15:46.239Z,1005.57
2019-05-21T16:16:46.224Z,1005.60
2019-05-21T16:17:46.221Z,1005.59
2019-05-21T16:18:46.202Z,1005.62
2019-05-21T16:19:46.201Z,1005.59
2019-05-21T16:20:46.185Z,1005.63
2019-05-21T16:21:46.182Z,1005.61
2019-05-21T16:22:46.160Z,1005.58
2019-05-21T16:23:46.152Z,1005.63
2019-05-21T16:24:46.153Z,1005.60